createdAt,value
2022-09-05T00:02:01.207Z,23.40
2022-09-05T00:05:51.007Z,23.20
2022-09-05T00:09:31.305Z,23.20
2022-09-05T00:13:07.571Z,23.10
2022-09-05T00:16:51.049Z,23.00
2022-09-05T00:24:23.161Z,23.10
2022-09-05T00:25:06.907Z,23.00
2022-09-05T00:28:37.734Z,23.00
2022-09-05T00:32:14.265Z,22.90
2022-09-05T00:35:53.041Z,22.90
2022-09-05T00:39:39.865Z,22.90
2022-09-05T00:43:09.705Z,22.90
2022-09-05T00:46:44.618Z,22.90
2022-09-05T00:50:15.292Z,22.70
2022-09-05T00:53:40.331Z,22.70
2022-09-05T00:57:21.377Z,22.60
2022-09-05T01:00:58.917Z,22.60
2022-09-05T01:04:42.307Z,22.60
2022-09-05T01:08:19.469Z,22.50
2022-09-05T01:12:22.596Z,22.60
2022-09-05T01:16:06.067Z,22.50
2022-09-05T01:19:28.271Z,22.50
2022-09-05T01:23:15.473Z,22.50
2022-09-05T01:26:48.647Z,22.50
2022-09-05T01:30:23.433Z,22.50
2022-09-05T01:34:17.582Z,22.50
2022-09-05T01:37:54.176Z,22.50
2022-09-05T01:41:21.831Z,22.50
2022-09-05T01:45:20.446Z,22.50
2022-09-05T01:48:57.953Z,22.50
2022-09-05T01:53:06.058Z,22.40
2022-09-05T01:56:34.418Z,22.40
2022-09-05T02:00:13.437Z,22.40
2022-09-05T02:03:38.586Z,22.30
2022-09-05T02:07:36.118Z,22.30
2022-09-05T02:11:12.734Z,22.30
2022-09-05T02:15:02.407Z,22.30
2022-09-05T02:18:31.108Z,22.30
2022-09-05T02:22:13.010Z,22.30
2022-09-05T02:26:00.998Z,22.30
2022-09-05T02:29:29.129Z,22.30
2022-09-05T02:33:08.718Z,22.30
2022-09-05T02:36:44.196Z,22.30
2022-09-05T02:45:10.354Z,22.40
2022-09-05T02:45:12.506Z,22.40
2022-09-05T02:48:15.035Z,22.50
2022-09-05T02:57:25.163Z,22.60
2022-09-05T02:57:40.614Z,22.50
2022-09-05T02:59:47.407Z,22.50
2022-09-05T03:03:35.064Z,22.50
2022-09-05T03:07:15.047Z,22.40
2022-09-05T03:10:53.250Z,22.40
2022-09-05T03:14:51.258Z,22.50
2022-09-05T03:18:47.602Z,22.50
2022-09-05T03:22:22.786Z,22.50
2022-09-05T03:25:51.016Z,22.50
2022-09-05T03:29:41.887Z,22.50
2022-09-05T03:33:33.096Z,22.50
2022-09-05T03:37:13.743Z,22.50
2022-09-05T03:40:39.094Z,22.50
2022-09-05T03:44:10.399Z,22.60
2022-09-05T03:48:02.289Z,22.60
2022-09-05T03:57:04.714Z,22.70
2022-09-05T03:57:18.608Z,22.70
2022-09-05T03:59:21.666Z,22.80
2022-09-05T04:08:10.688Z,22.80
2022-09-05T04:08:16.873Z,22.90
2022-09-05T04:10:59.778Z,22.90
2022-09-05T04:14:26.722Z,23.10
2022-09-05T04:18:03.935Z,23.10
2022-09-05T04:21:30.535Z,23.10
2022-09-05T04:25:16.593Z,22.90
2022-09-05T04:29:15.076Z,22.70
2022-09-05T04:32:54.797Z,22.60
2022-09-05T04:36:33.118Z,22.50
2022-09-05T04:39:55.477Z,22.50
2022-09-05T04:43:24.971Z,22.40
2022-09-05T04:46:55.501Z,22.40
2022-09-05T04:50:23.665Z,22.40
2022-09-05T04:53:49.670Z,22.50
2022-09-05T04:57:27.727Z,22.40
2022-09-05T05:06:00.469Z,22.40
2022-09-05T05:06:11.902Z,22.40
2022-09-05T05:08:39.085Z,22.40
2022-09-05T05:18:01.199Z,22.40
2022-09-05T05:18:13.109Z,22.40
2022-09-05T05:20:39.773Z,22.40
2022-09-05T05:23:43.562Z,22.50
2022-09-05T05:27:10.734Z,22.40
2022-09-05T05:30:33.978Z,22.30
2022-09-05T05:34:02.396Z,22.30
2022-09-05T05:37:33.621Z,22.20
2022-09-05T05:41:17.075Z,22.10
2022-09-05T05:44:47.710Z,22.10
2022-09-05T05:48:19.382Z,22.20
2022-09-05T05:52:09.280Z,22.30
2022-09-05T05:55:53.750Z,22.20
2022-09-05T05:59:40.913Z,22.20
2022-09-05T06:03:36.399Z,22.30
2022-09-05T06:07:17.610Z,22.30
2022-09-05T06:14:51.158Z,22.30
2022-09-05T06:15:08.925Z,22.30
2022-09-05T06:19:25.433Z,22.10
2022-09-05T06:23:36.694Z,22.00
2022-09-05T06:27:24.293Z,22.10
2022-09-05T06:31:29.901Z,22.10
2022-09-05T06:35:08.169Z,22.00
2022-09-05T06:38:39.510Z,22.10
2022-09-05T06:42:42.673Z,22.10
2022-09-05T06:46:55.187Z,21.80
2022-09-05T06:50:27.401Z,22.00
2022-09-05T06:54:07.879Z,21.90
2022-09-05T06:58:11.493Z,21.90
2022-09-05T07:02:11.881Z,21.90
2022-09-05T07:05:46.824Z,21.90
2022-09-05T07:09:20.921Z,21.90
2022-09-05T07:12:53.605Z,21.90
2022-09-05T07:16:32.224Z,21.90
2022-09-05T07:20:04.475Z,21.80
2022-09-05T07:24:06.312Z,21.80
2022-09-05T07:27:46.807Z,21.90
2022-09-05T07:31:33.640Z,21.80
2022-09-05T07:35:03.118Z,21.90
2022-09-05T07:38:52.158Z,21.80
2022-09-05T07:42:17.544Z,21.90
2022-09-05T07:45:56.236Z,21.80
2022-09-05T07:49:23.720Z,22.00
2022-09-05T07:56:54.314Z,22.10
2022-09-05T08:00:53.820Z,22.20
2022-09-05T08:04:25.855Z,22.30
2022-09-05T08:08:01.616Z,22.20
2022-09-05T08:11:27.928Z,22.30
2022-09-05T08:15:10.409Z,22.40
2022-09-05T08:18:42.607Z,22.60
2022-09-05T08:22:08.845Z,22.60
2022-09-05T08:25:57.589Z,22.80
2022-09-05T08:29:33.249Z,23.00
2022-09-05T08:33:12.473Z,23.10
2022-09-05T08:36:47.615Z,23.20
2022-09-05T08:40:33.065Z,23.20
2022-09-05T08:46:36.977Z,23.00
2022-09-05T08:48:42.190Z,23.00
2022-09-05T08:52:09.265Z,23.20
2022-09-05T08:55:47.231Z,23.20
2022-09-05T08:59:33.976Z,23.20
2022-09-05T09:03:11.837Z,23.20
2022-09-05T09:06:34.089Z,23.30
2022-09-05T09:10:36.830Z,23.40
2022-09-05T09:14:49.482Z,23.60
2022-09-05T09:18:17.412Z,23.60
2022-09-05T09:22:12.326Z,23.70
2022-09-05T09:25:39.741Z,23.80
2022-09-05T09:29:07.074Z,23.90
2022-09-05T09:32:30.486Z,24.10
2022-09-05T09:36:08.175Z,24.30
2022-09-05T09:39:59.126Z,24.30
2022-09-05T09:43:27.988Z,24.20
2022-09-05T09:46:52.030Z,24.10
2022-09-05T09:50:32.701Z,24.10
2022-09-05T09:54:33.906Z,24.10
2022-09-05T09:58:33.623Z,24.10
2022-09-05T10:04:31.043Z,24.20
2022-09-05T10:10:44.210Z,24.30
2022-09-05T10:14:49.911Z,24.40
2022-09-05T10:18:31.441Z,24.40
2022-09-05T10:26:52.858Z,24.50
2022-09-05T10:31:09.996Z,24.60
2022-09-05T10:35:18.138Z,24.50
2022-09-05T10:38:40.391Z,24.30
2022-09-05T10:42:05.074Z,24.30
2022-09-05T10:45:45.175Z,24.30
2022-09-05T10:49:10.907Z,24.30
2022-09-05T10:52:57.625Z,24.20
2022-09-05T10:56:30.474Z,24.30
2022-09-05T11:02:19.266Z,24.30
2022-09-05T11:04:05.664Z,24.40
2022-09-05T11:07:36.916Z,24.50
2022-09-05T11:11:32.579Z,24.60
2022-09-05T11:15:02.500Z,24.70
2022-09-05T11:18:55.479Z,24.70
2022-09-05T11:22:24.435Z,24.70
2022-09-05T11:25:53.298Z,24.80
2022-09-05T11:29:22.025Z,24.80
2022-09-05T11:39:43.887Z,24.90
2022-09-05T11:39:50.250Z,24.90
2022-09-05T11:41:01.411Z,24.90
2022-09-05T11:44:50.271Z,25.00
2022-09-05T11:48:53.258Z,24.90
2022-09-05T11:52:51.486Z,24.90
2022-09-05T11:56:50.288Z,24.90
2022-09-05T12:00:33.278Z,24.90
2022-09-05T12:04:09.909Z,24.90
2022-09-05T12:07:42.613Z,24.90
2022-09-05T12:11:20.578Z,24.90
2022-09-05T12:15:12.196Z,24.90
2022-09-05T12:19:19.292Z,24.90
2022-09-05T12:23:04.264Z,24.90
2022-09-05T12:27:42.718Z,24.80
2022-09-05T12:30:57.106Z,24.80
2022-09-05T12:36:12.860Z,24.90
2022-09-05T12:41:36.612Z,24.90
2022-09-05T12:44:36.653Z,24.90
2022-09-05T12:47:17.051Z,24.90
2022-09-05T12:50:59.237Z,24.90
2022-09-05T12:54:34.657Z,25.00
2022-09-05T13:02:55.511Z,25.00
2022-09-05T13:03:00.956Z,25.00
2022-09-05T13:05:51.883Z,25.00
2022-09-05T13:09:20.157Z,25.00
2022-09-05T13:14:55.052Z,25.00
2022-09-05T13:16:55.371Z,25.00
2022-09-05T13:20:36.691Z,25.00
2022-09-05T13:24:07.366Z,25.00
2022-09-05T13:27:33.409Z,25.00
2022-09-05T13:37:53.820Z,25.00
2022-09-05T13:38:15.038Z,25.00
2022-09-05T13:39:11.554Z,25.10
2022-09-05T13:42:43.877Z,25.10
2022-09-05T13:46:11.517Z,25.10
2022-09-05T13:50:05.670Z,25.10
2022-09-05T13:53:43.926Z,25.10
2022-09-05T13:57:33.637Z,25.10
2022-09-05T14:01:04.981Z,25.10
2022-09-05T14:05:06.653Z,25.10
2022-09-05T14:13:00.874Z,25.10
2022-09-05T14:16:32.886Z,25.10
2022-09-05T14:20:14.546Z,25.10
2022-09-05T14:24:03.418Z,25.10
2022-09-05T14:27:32.490Z,25.10
2022-09-05T14:36:02.076Z,25.20
2022-09-05T14:37:49.876Z,25.20
2022-09-05T14:39:38.351Z,25.20
2022-09-05T14:43:30.756Z,25.20
2022-09-05T14:47:02.464Z,25.20
2022-09-05T14:50:39.753Z,25.20
2022-09-05T15:02:44.027Z,25.20
2022-09-05T15:02:54.799Z,25.20
2022-09-05T15:05:53.547Z,25.30
2022-09-05T15:11:36.071Z,25.30
2022-09-05T15:13:16.865Z,25.30
2022-09-05T15:16:45.599Z,25.30
2022-09-05T15:20:09.712Z,25.40
2022-09-05T15:23:35.065Z,25.30
2022-09-05T15:26:59.874Z,25.30
2022-09-05T15:30:35.982Z,25.40
2022-09-05T15:34:20.074Z,25.40
2022-09-05T15:37:43.591Z,25.40
2022-09-05T15:41:29.011Z,25.40
2022-09-05T15:45:09.813Z,25.40
2022-09-05T15:48:34.965Z,25.40
2022-09-05T15:52:09.176Z,25.40
2022-09-05T15:55:45.585Z,25.50
2022-09-05T15:59:12.006Z,25.40
2022-09-05T16:02:38.524Z,25.40
2022-09-05T16:10:30.368Z,25.50
2022-09-05T16:10:49.020Z,25.40
2022-09-05T16:13:53.014Z,25.40
2022-09-05T16:23:16.907Z,25.40
2022-09-05T16:23:28.090Z,25.40
2022-09-05T16:25:08.877Z,25.40
2022-09-05T16:28:40.350Z,25.40
2022-09-05T16:32:02.536Z,25.40
2022-09-05T16:35:26.731Z,25.40
2022-09-05T16:38:59.757Z,25.40
2022-09-05T16:42:46.218Z,25.40
2022-09-05T16:46:35.418Z,25.40
2022-09-05T16:50:03.929Z,25.50
2022-09-05T16:53:32.598Z,25.40
2022-09-05T16:57:05.961Z,25.40
2022-09-05T17:00:39.479Z,25.40
2022-09-05T17:04:16.052Z,25.40
2022-09-05T17:07:42.142Z,25.40
2022-09-05T17:11:13.816Z,25.40
2022-09-05T17:15:03.461Z,25.40
2022-09-05T17:18:31.982Z,25.50
2022-09-05T17:25:44.547Z,25.50
2022-09-05T17:29:45.347Z,25.50
2022-09-05T17:33:45.603Z,25.50
2022-09-05T17:37:34.606Z,25.50
2022-09-05T17:41:34.245Z,25.40
2022-09-05T17:45:14.815Z,25.40
2022-09-05T17:49:13.412Z,25.40
2022-09-05T17:52:41.172Z,25.40
2022-09-05T17:56:11.493Z,25.40
2022-09-05T17:59:33.804Z,25.40
2022-09-05T18:02:57.021Z,25.40
2022-09-05T18:06:19.217Z,25.40
2022-09-05T18:09:42.346Z,25.40
2022-09-05T18:13:32.546Z,25.40
2022-09-05T18:20:41.381Z,25.40
2022-09-05T18:24:12.820Z,25.40
2022-09-05T18:28:04.474Z,25.40
2022-09-05T18:31:41.204Z,25.40
2022-09-05T18:35:36.891Z,25.40
2022-09-05T18:39:28.191Z,25.40
2022-09-05T18:42:53.070Z,25.40
2022-09-05T18:46:22.505Z,25.40
2022-09-05T18:50:25.375Z,25.40
2022-09-05T18:53:36.114Z,25.40
2022-09-05T18:57:26.530Z,25.20
2022-09-05T19:00:44.648Z,25.10
2022-09-05T19:04:38.974Z,25.00
2022-09-05T19:08:06.300Z,25.00
2022-09-05T19:11:53.990Z,25.00
2022-09-05T19:15:29.746Z,25.00
2022-09-05T19:19:07.202Z,25.00
2022-09-05T19:22:54.148Z,24.90
2022-09-05T19:26:14.172Z,24.90
2022-09-05T19:36:44.810Z,24.80
2022-09-05T19:36:58.907Z,24.70
2022-09-05T19:37:29.052Z,24.80
2022-09-05T19:47:39.124Z,24.70
2022-09-05T19:47:50.100Z,24.70
2022-09-05T19:48:26.712Z,24.60
2022-09-05T19:51:49.054Z,24.60
2022-09-05T19:55:20.480Z,24.50
2022-09-05T19:58:43.102Z,24.30
2022-09-05T20:02:15.497Z,24.10
2022-09-05T20:05:43.632Z,24.10
2022-09-05T20:09:13.947Z,24.00
2022-09-05T20:12:38.918Z,24.00
2022-09-05T20:16:01.860Z,23.90
2022-09-05T20:19:34.334Z,23.70
2022-09-05T20:23:05.643Z,23.80
2022-09-05T20:26:30.291Z,23.90
2022-09-05T20:29:55.701Z,23.90
2022-09-05T20:33:23.413Z,24.00
2022-09-05T20:43:11.160Z,24.00
2022-09-05T20:43:18.016Z,24.10
2022-09-05T20:44:32.847Z,24.00
2022-09-05T20:54:08.975Z,23.90
2022-09-05T20:54:24.998Z,23.90
2022-09-05T20:55:38.844Z,23.90
2022-09-05T20:59:01.561Z,23.90
2022-09-05T21:02:27.341Z,24.00
2022-09-05T21:05:50.549Z,24.00
2022-09-05T21:09:24.675Z,24.00
2022-09-05T21:12:50.897Z,24.00
2022-09-05T21:16:26.792Z,24.10
2022-09-05T21:19:56.757Z,24.00
2022-09-05T21:23:21.602Z,24.10
2022-09-05T21:26:44.108Z,24.00
2022-09-05T21:30:30.704Z,24.00
2022-09-05T21:33:57.555Z,24.00
2022-09-05T21:37:21.941Z,24.00
2022-09-05T21:40:49.367Z,23.90
2022-09-05T21:47:42.056Z,23.80
2022-09-05T21:47:56.932Z,23.70
2022-09-05T21:51:25.055Z,23.60
2022-09-05T21:59:14.523Z,23.50
2022-09-05T21:59:24.924Z,23.50
2022-09-05T22:02:16.689Z,23.40
2022-09-05T22:05:39.239Z,23.40
2022-09-05T22:09:13.541Z,23.40
2022-09-05T22:12:38.725Z,23.40
2022-09-05T22:16:05.010Z,23.30
2022-09-05T22:19:36.960Z,23.20
2022-09-05T22:23:01.241Z,23.20
2022-09-05T22:26:23.534Z,23.20
2022-09-05T22:29:50.679Z,23.10
2022-09-05T22:33:13.461Z,23.10
2022-09-05T22:36:35.685Z,23.10
2022-09-05T22:39:57.943Z,23.10
2022-09-05T22:43:20.134Z,23.10
2022-09-05T22:46:47.398Z,23.10
2022-09-05T22:50:09.802Z,23.10
2022-09-05T22:53:32.244Z,23.00
2022-09-05T22:56:54.459Z,22.90
2022-09-05T23:00:16.975Z,22.90
2022-09-05T23:03:39.185Z,23.00
2022-09-05T23:07:02.794Z,23.00
2022-09-05T23:10:26.716Z,22.90
2022-09-05T23:13:48.971Z,22.90
2022-09-05T23:17:13.814Z,23.00
2022-09-05T23:20:36.090Z,23.00
2022-09-05T23:23:58.291Z,22.90
2022-09-05T23:27:20.538Z,22.90
2022-09-05T23:30:42.742Z,23.00
2022-09-05T23:34:04.991Z,22.90
2022-09-05T23:37:27.569Z,22.90
2022-09-05T23:40:49.801Z,22.80
2022-09-05T23:44:12.164Z,22.70
2022-09-05T23:47:37.853Z,22.70
2022-09-05T23:51:11.944Z,22.70
2022-09-05T23:54:34.146Z,22.60
2022-09-05T23:57:57.690Z,22.60
